Time;durP1;ratioP1;P1;durP2;ratioP2;P2;SDS_P1;SDS_P2;PMS_P1;PMS_P2;Temp;Humidity;BMP_temperature;BMP_pressure;BME280_temperature;BME280_humidity;BME280_pressure;Samples;Min_cycle;Max_cycle;Signal;HPM_P1;HPM_P2
2022/10/02 00:00:16;;;;;;;;;1.50;1.00;;;;;;;;5082340;28;61905;-80
2022/10/02 00:02:51;;;;;;;;;4.25;1.00;;;;;;;;5083902;27;61979;-80
2022/10/02 00:05:19;;;;;;;;;3.00;3.00;;;;;;;;5081802;28;63610;-80
2022/10/02 00:07:45;;;;;;;;;1.75;1.25;;;;;;;;5082574;28;61899;-80
2022/10/02 00:10:17;;;;;;;;;1.25;1.25;;;;;;;;5083171;28;61991;-80
2022/10/02 00:12:44;;;;;;;;;1.00;1.00;;;;;;;;5082846;28;62281;-79
2022/10/02 00:15:14;;;;;;;;;2.00;1.25;;;;;;;;5082926;27;62037;-80
2022/10/02 00:17:42;;;;;;;;;1.25;1.00;;;;;;;;5083491;28;61979;-80
2022/10/02 00:20:11;;;;;;;;;1.50;1.00;;;;;;;;5083572;28;61826;-80
2022/10/02 00:22:47;;;;;;;;;1.25;0.50;;;;;;;;5082250;28;61717;-80
2022/10/02 00:25:12;;;;;;;;;1.75;1.75;;;;;;;;5080945;28;63719;-80
2022/10/02 00:27:43;;;;;;;;;1.00;1.00;;;;;;;;5083401;28;61933;-81
2022/10/02 00:30:14;;;;;;;;;5.00;1.75;;;;;;;;5083625;27;61745;-80
2022/10/02 00:32:43;;;;;;;;;3.00;2.00;;;;;;;;5081896;28;61769;-80
2022/10/02 00:35:14;;;;;;;;;4.50;2.75;;;;;;;;5081163;28;62617;-80
2022/10/02 00:37:45;;;;;;;;;1.00;1.00;;;;;;;;5082836;28;61679;-80
2022/10/02 00:40:13;;;;;;;;;2.00;2.00;;;;;;;;5082863;28;61700;-80
2022/10/02 00:42:56;;;;;;;;;1.25;1.25;;;;;;;;5083360;28;62103;-80
2022/10/02 00:45:40;;;;;;;;;3.50;1.75;;;;;;;;5082751;28;61880;-81
2022/10/02 00:48:05;;;;;;;;;1.00;1.00;;;;;;;;5081458;27;61977;-80
2022/10/02 00:50:45;;;;;;;;;3.00;1.50;;;;;;;;5082768;28;61752;-80
2022/10/02 00:53:22;;;;;;;;;2.50;2.00;;;;;;;;5081083;28;62257;-80
2022/10/02 00:55:50;;;;;;;;;2.75;1.75;;;;;;;;5080787;28;63764;-80
2022/10/02 00:58:25;;;;;;;;;3.75;1.00;;;;;;;;5082879;27;61952;-80
2022/10/02 01:00:57;;;;;;;;;1.75;1.75;;;;;;;;5081534;28;61782;-80
2022/10/02 01:03:28;;;;;;;;;0.33;0.00;;;;;;;;5083125;27;61832;-80
2022/10/02 01:05:53;;;;;;;;;1.00;1.00;;;;;;;;5082460;27;62125;-80
2022/10/02 01:08:19;;;;;;;;;1.25;1.25;;;;;;;;5080792;28;62082;-80
2022/10/02 01:10:44;;;;;;;;;2.00;2.00;;;;;;;;5081409;28;61841;-80
2022/10/02 01:13:09;;;;;;;;;1.25;1.00;;;;;;;;5082898;28;61811;-80
2022/10/02 01:15:45;;;;;;;;;1.00;1.00;;;;;;;;5080783;27;64941;-80
2022/10/02 01:18:12;;;;;;;;;3.33;1.00;;;;;;;;5081505;28;61840;-80
2022/10/02 01:20:41;;;;;;;;;2.25;2.25;;;;;;;;5082856;28;61840;-80
2022/10/02 01:23:25;;;;;;;;;3.00;2.00;;;;;;;;5081936;28;62007;-80
2022/10/02 01:25:50;;;;;;;;;1.00;1.00;;;;;;;;5082162;27;61815;-80
2022/10/02 01:28:16;;;;;;;;;1.00;1.00;;;;;;;;5082730;27;61885;-80
2022/10/02 01:30:43;;;;;;;;;2.00;2.00;;;;;;;;5081432;28;61927;-80
2022/10/02 01:33:09;;;;;;;;;1.25;1.00;;;;;;;;5081325;28;61988;-80
2022/10/02 01:35:36;;;;;;;;;2.25;1.50;;;;;;;;5082216;28;62121;-80
2022/10/02 01:38:06;;;;;;;;;1.75;1.75;;;;;;;;5081776;27;61686;-80
2022/10/02 01:40:32;;;;;;;;;5.25;0.75;;;;;;;;5082817;27;61909;-80
2022/10/02 01:42:59;;;;;;;;;3.00;2.00;;;;;;;;5081056;28;61833;-80
2022/10/02 01:45:44;;;;;;;;;1.00;1.00;;;;;;;;5080566;28;65035;-79
2022/10/02 01:48:29;;;;;;;;;3.00;1.75;;;;;;;;5081049;28;61729;-80
2022/10/02 01:51:01;;;;;;;;;1.00;1.00;;;;;;;;5082563;27;61955;-80
2022/10/02 01:53:38;;;;;;;;;1.50;1.50;;;;;;;;5060208;28;62183;-80
2022/10/02 01:56:03;;;;;;;;;2.00;1.00;;;;;;;;5070924;28;64534;-80
2022/10/02 01:58:32;;;;;;;;;6.00;1.00;;;;;;;;5081562;27;61739;-80
2022/10/02 02:01:13;;;;;;;;;2.00;1.00;;;;;;;;5080842;28;61821;-80
2022/10/02 02:03:38;;;;;;;;;2.25;1.25;;;;;;;;5082142;28;62298;-80
2022/10/02 02:06:03;;;;;;;;;2.25;0.00;;;;;;;;5079597;28;63924;-80
2022/10/02 02:08:40;;;;;;;;;2.00;2.00;;;;;;;;5080619;28;61763;-80
2022/10/02 02:11:11;;;;;;;;;3.00;2.00;;;;;;;;5082149;27;61910;-80
2022/10/02 02:13:49;;;;;;;;;1.25;1.25;;;;;;;;5080797;28;61705;-80
2022/10/02 02:16:44;;;;;;;;;3.00;1.00;;;;;;;;5079943;27;64855;-80
2022/10/02 02:19:15;;;;;;;;;1.00;1.00;;;;;;;;5062883;28;61827;-80
2022/10/02 02:21:44;;;;;;;;;2.50;1.00;;;;;;;;5067035;28;61723;-79
2022/10/02 02:24:14;;;;;;;;;3.00;1.50;;;;;;;;5081241;28;61721;-80
2022/10/02 02:26:42;;;;;;;;;2.25;1.00;;;;;;;;5080265;28;63614;-80
2022/10/02 02:29:08;;;;;;;;;1.75;1.00;;;;;;;;5081525;27;61894;-80
2022/10/02 02:31:37;;;;;;;;;2.00;1.00;;;;;;;;5080680;28;61813;-80
2022/10/02 02:34:05;;;;;;;;;0.75;0.00;;;;;;;;5081811;27;62247;-80
2022/10/02 02:36:39;;;;;;;;;1.25;1.00;;;;;;;;5079695;28;63918;-79
2022/10/02 02:39:14;;;;;;;;;0.50;0.50;;;;;;;;5081046;27;62353;-79
2022/10/02 02:41:42;;;;;;;;;0.00;0.00;;;;;;;;5081888;27;62138;-79
2022/10/02 02:44:12;;;;;;;;;0.00;0.00;;;;;;;;5080180;28;62148;-79
2022/10/02 02:47:03;;;;;;;;;0.00;0.00;;;;;;;;5079891;28;64048;-79
2022/10/02 02:49:51;;;;;;;;;1.00;1.00;;;;;;;;5078171;27;61903;-79
2022/10/02 02:52:21;;;;;;;;;1.00;1.00;;;;;;;;5081270;28;62266;-79
2022/10/02 02:54:52;;;;;;;;;0.00;0.00;;;;;;;;5079466;28;62205;-79
2022/10/02 02:57:23;;;;;;;;;1.00;1.00;;;;;;;;5080755;27;61874;-79
2022/10/02 02:59:50;;;;;;;;;4.00;1.00;;;;;;;;5080292;28;61814;-79
2022/10/02 03:02:15;;;;;;;;;1.25;0.00;;;;;;;;5079764;28;61799;-79
2022/10/02 03:04:41;;;;;;;;;0.00;0.00;;;;;;;;5079984;28;61771;-79
2022/10/02 03:07:11;;;;;;;;;1.00;1.00;;;;;;;;5080889;28;62370;-79
2022/10/02 03:09:39;;;;;;;;;1.50;0.75;;;;;;;;5081535;27;62049;-79
2022/10/02 03:12:23;;;;;;;;;0.75;0.00;;;;;;;;5083828;28;62052;-79
2022/10/02 03:14:57;;;;;;;;;2.00;0.00;;;;;;;;5083428;27;62162;-79
2022/10/02 03:17:39;;;;;;;;;0.50;0.50;;;;;;;;5082401;28;63864;-79
2022/10/02 03:20:25;;;;;;;;;1.25;1.25;;;;;;;;5084398;28;61744;-79
2022/10/02 03:22:53;;;;;;;;;2.00;0.25;;;;;;;;5082824;27;62112;-79
2022/10/02 03:25:44;;;;;;;;;0.50;0.50;;;;;;;;5082746;28;61764;-80
2022/10/02 03:28:16;;;;;;;;;1.00;0.00;;;;;;;;5080152;27;64095;-79
2022/10/02 03:30:42;;;;;;;;;1.25;0.50;;;;;;;;5083314;28;61971;-79
2022/10/02 03:33:09;;;;;;;;;0.00;0.00;;;;;;;;5082735;28;62101;-79
2022/10/02 03:35:35;;;;;;;;;0.00;0.00;;;;;;;;5084552;27;61900;-79
2022/10/02 03:38:04;;;;;;;;;0.50;0.00;;;;;;;;5082434;28;63386;-80
2022/10/02 03:40:30;;;;;;;;;1.00;1.00;;;;;;;;5082644;28;62341;-80
2022/10/02 03:42:57;;;;;;;;;0.00;0.00;;;;;;;;5084305;27;61915;-80
2022/10/02 03:45:23;;;;;;;;;0.00;0.00;;;;;;;;5083174;28;61905;-79
2022/10/02 03:47:48;;;;;;;;;0.00;0.00;;;;;;;;5083534;27;62123;-80
2022/10/02 03:50:13;;;;;;;;;0.00;0.00;;;;;;;;5082667;28;61964;-80
2022/10/02 03:52:39;;;;;;;;;0.75;0.00;;;;;;;;5082985;28;62232;-80
2022/10/02 03:55:13;;;;;;;;;0.00;0.00;;;;;;;;5082480;27;61925;-80
2022/10/02 03:57:39;;;;;;;;;0.00;0.00;;;;;;;;5083508;28;63347;-79
2022/10/02 04:00:08;;;;;;;;;1.00;1.00;;;;;;;;5082361;28;62259;-80
2022/10/02 04:02:46;;;;;;;;;0.00;0.00;;;;;;;;5083967;27;61792;-80
2022/10/02 04:05:17;;;;;;;;;0.00;0.00;;;;;;;;5082739;28;62096;-79
2022/10/02 04:07:44;;;;;;;;;0.00;0.00;;;;;;;;5083075;27;63041;-79
2022/10/02 04:10:12;;;;;;;;;0.00;0.00;;;;;;;;5082262;27;61856;-80
2022/10/02 04:12:42;;;;;;;;;0.00;0.00;;;;;;;;5083837;27;62037;-79
2022/10/02 04:15:08;;;;;;;;;0.00;0.00;;;;;;;;5084055;27;61994;-80
2022/10/02 04:17:42;;;;;;;;;0.00;0.00;;;;;;;;5081495;28;63550;-79
2022/10/02 04:20:17;;;;;;;;;0.00;0.00;;;;;;;;5083684;28;61905;-80
2022/10/02 04:22:49;;;;;;;;;0.00;0.00;;;;;;;;5082888;28;61725;-80
2022/10/02 04:25:17;;;;;;;;;0.00;0.00;;;;;;;;5079331;28;62133;-80
2022/10/02 04:27:42;;;;;;;;;0.50;0.00;;;;;;;;5081757;28;63135;-80
2022/10/02 04:30:12;;;;;;;;;0.50;0.00;;;;;;;;5081637;28;61798;-80
2022/10/02 04:32:38;;;;;;;;;0.75;0.75;;;;;;;;5082807;27;61819;-80
2022/10/02 04:35:22;;;;;;;;;0.00;0.00;;;;;;;;5082165;28;62017;-80
2022/10/02 04:38:05;;;;;;;;;0.00;0.00;;;;;;;;5081514;28;64541;-80
2022/10/02 04:40:34;;;;;;;;;0.00;0.00;;;;;;;;5081714;28;62075;-80
2022/10/02 04:43:08;;;;;;;;;0.00;0.00;;;;;;;;5083108;28;62067;-80
2022/10/02 04:45:53;;;;;;;;;0.00;0.00;;;;;;;;5081788;28;61951;-80
2022/10/02 04:48:39;;;;;;;;;0.00;0.00;;;;;;;;5081331;28;63497;-79
2022/10/02 04:51:22;;;;;;;;;0.00;0.00;;;;;;;;5081797;28;61966;-80
2022/10/02 04:54:08;;;;;;;;;0.00;0.00;;;;;;;;5081015;28;61960;-80
2022/10/02 04:56:39;;;;;;;;;0.00;0.00;;;;;;;;5079430;27;62186;-80
2022/10/02 04:59:12;;;;;;;;;0.00;0.00;;;;;;;;5081071;28;64949;-80
2022/10/02 05:01:43;;;;;;;;;0.00;0.00;;;;;;;;5081539;28;61774;-80
2022/10/02 05:04:11;;;;;;;;;0.00;0.00;;;;;;;;5081840;28;61761;-79
2022/10/02 05:06:46;;;;;;;;;0.00;0.00;;;;;;;;5083241;27;61690;-80
2022/10/02 05:09:11;;;;;;;;;0.00;0.00;;;;;;;;5081955;28;61912;-80
2022/10/02 05:11:59;;;;;;;;;0.00;0.00;;;;;;;;5082947;27;61928;-80
2022/10/02 05:14:47;;;;;;;;;0.00;0.00;;;;;;;;5082994;27;61893;-80
2022/10/02 05:17:16;;;;;;;;;0.00;0.00;;;;;;;;5081710;28;62138;-80
2022/10/02 05:19:41;;;;;;;;;0.50;0.00;;;;;;;;5081937;28;63066;-80
2022/10/02 05:22:29;;;;;;;;;0.00;0.00;;;;;;;;5082631;28;61812;-80
2022/10/02 05:25:19;;;;;;;;;0.00;0.00;;;;;;;;5080581;28;62514;-80
2022/10/02 05:27:49;;;;;;;;;0.00;0.00;;;;;;;;5081623;28;62025;-80
2022/10/02 05:30:18;;;;;;;;;0.50;0.00;;;;;;;;5080554;28;63482;-80
2022/10/02 05:32:49;;;;;;;;;0.00;0.00;;;;;;;;5080779;28;61839;-80
2022/10/02 05:35:33;;;;;;;;;0.00;0.00;;;;;;;;5080709;27;61909;-80
2022/10/02 05:38:08;;;;;;;;;0.00;0.00;;;;;;;;5080891;28;61777;-80
2022/10/02 05:40:53;;;;;;;;;0.00;0.00;;;;;;;;5081641;28;61909;-80
2022/10/02 05:43:18;;;;;;;;;0.00;0.00;;;;;;;;5076879;27;62162;-81
2022/10/02 05:46:05;;;;;;;;;0.00;0.00;;;;;;;;5082572;28;61893;-80
2022/10/02 05:48:50;;;;;;;;;0.00;0.00;;;;;;;;5081448;28;62199;-80
2022/10/02 05:51:19;;;;;;;;;0.00;0.00;;;;;;;;5082210;27;62071;-80
2022/10/02 05:53:52;;;;;;;;;0.00;0.00;;;;;;;;5080098;28;61923;-80
2022/10/02 05:56:23;;;;;;;;;0.00;0.00;;;;;;;;5080724;28;61765;-80
2022/10/02 05:58:54;;;;;;;;;0.25;0.00;;;;;;;;5080698;28;61774;-80
2022/10/02 06:01:20;;;;;;;;;0.00;0.00;;;;;;;;5081649;28;61819;-80
2022/10/02 06:04:15;;;;;;;;;0.00;0.00;;;;;;;;5080823;28;61891;-80
2022/10/02 06:06:44;;;;;;;;;0.00;0.00;;;;;;;;5077015;27;61946;-80
2022/10/02 06:09:19;;;;;;;;;0.25;0.00;;;;;;;;5061583;28;61974;-80
2022/10/02 06:11:48;;;;;;;;;0.75;0.00;;;;;;;;5074457;28;63812;-79
2022/10/02 06:14:26;;;;;;;;;0.00;0.00;;;;;;;;5081474;28;61734;-79
2022/10/02 06:16:58;;;;;;;;;0.00;0.00;;;;;;;;5081875;27;61700;-79
2022/10/02 06:19:31;;;;;;;;;0.00;0.00;;;;;;;;5080020;28;62092;-79
2022/10/02 06:22:10;;;;;;;;;0.00;0.00;;;;;;;;5080934;28;61827;-79
2022/10/02 06:24:39;;;;;;;;;0.00;0.00;;;;;;;;5079835;28;61744;-79
2022/10/02 06:27:09;;;;;;;;;0.00;0.00;;;;;;;;5081232;28;61774;-77
2022/10/02 06:29:44;;;;;;;;;0.00;0.00;;;;;;;;5080730;28;61744;-78
2022/10/02 06:32:20;;;;;;;;;0.00;0.00;;;;;;;;5079635;28;63882;-77
2022/10/02 06:34:46;;;;;;;;;0.00;0.00;;;;;;;;5081537;28;61920;-78
2022/10/02 06:37:17;;;;;;;;;1.00;0.00;;;;;;;;5079944;28;61843;-78
2022/10/02 06:39:42;;;;;;;;;0.50;0.00;;;;;;;;5080286;28;62103;-78
2022/10/02 06:42:26;;;;;;;;;1.00;1.00;;;;;;;;5080945;28;61964;-79
2022/10/02 06:45:12;;;;;;;;;0.00;0.00;;;;;;;;5082673;28;62190;-78
2022/10/02 06:47:48;;;;;;;;;0.00;0.00;;;;;;;;5022237;28;62024;-78
2022/10/02 06:50:40;;;;;;;;;0.00;0.00;;;;;;;;5022224;28;62149;-78
2022/10/02 06:53:08;;;;;;;;;0.50;0.00;;;;;;;;5021233;28;63125;-79
2022/10/02 06:55:34;;;;;;;;;0.00;0.00;;;;;;;;5020824;28;61959;-78
2022/10/02 06:58:05;;;;;;;;;0.00;0.00;;;;;;;;5005462;28;62050;-78
2022/10/02 07:00:38;;;;;;;;;0.00;0.00;;;;;;;;5022258;28;61764;-78
2022/10/02 07:03:29;;;;;;;;;0.00;0.00;;;;;;;;5004923;28;64921;-79
2022/10/02 07:06:14;;;;;;;;;0.00;0.00;;;;;;;;5017123;28;61949;-78
2022/10/02 07:08:52;;;;;;;;;0.00;0.00;;;;;;;;5017764;28;61827;-78
2022/10/02 07:11:25;;;;;;;;;0.00;0.00;;;;;;;;4985354;28;62289;-78
2022/10/02 07:14:08;;;;;;;;;0.00;0.00;;;;;;;;4984841;28;64809;-78
2022/10/02 07:17:03;;;;;;;;;0.00;0.00;;;;;;;;4984983;28;62417;-79
2022/10/02 07:19:29;;;;;;;;;0.00;0.00;;;;;;;;4981302;28;61864;-78
2022/10/02 07:21:54;;;;;;;;;0.00;0.00;;;;;;;;5002146;28;61843;-79
2022/10/02 07:24:38;;;;;;;;;0.00;0.00;;;;;;;;4999964;28;63762;-81
2022/10/02 07:27:11;;;;;;;;;0.00;0.00;;;;;;;;5022961;28;61878;-80
2022/10/02 07:29:47;;;;;;;;;0.00;0.00;;;;;;;;5023970;28;62262;-79
2022/10/02 07:32:21;;;;;;;;;0.75;0.00;;;;;;;;5024469;28;61936;-80
2022/10/02 07:35:07;;;;;;;;;0.50;0.00;;;;;;;;5023087;28;62795;-81
2022/10/02 07:37:41;;;;;;;;;0.00;0.00;;;;;;;;5023409;28;61859;-80
2022/10/02 07:40:24;;;;;;;;;0.00;0.00;;;;;;;;5022281;28;61911;-80
2022/10/02 07:42:56;;;;;;;;;0.00;0.00;;;;;;;;5036331;28;62741;-80
2022/10/02 07:45:28;;;;;;;;;0.33;0.00;;;;;;;;5043043;28;62773;-80
2022/10/02 07:47:53;;;;;;;;;1.75;1.00;;;;;;;;5044006;28;61950;-80
2022/10/02 07:50:29;;;;;;;;;0.00;0.00;;;;;;;;5042322;28;62009;-78
2022/10/02 07:53:14;;;;;;;;;2.50;2.00;;;;;;;;5042753;28;62138;-78
2022/10/02 07:55:40;;;;;;;;;0.00;0.00;;;;;;;;5066089;28;61746;-84
2022/10/02 07:58:24;;;;;;;;;0.00;0.00;;;;;;;;5079964;28;62409;-81
2022/10/02 08:00:52;;;;;;;;;0.00;0.00;;;;;;;;5080674;28;62016;-82
2022/10/02 08:03:22;;;;;;;;;2.50;1.25;;;;;;;;5079592;28;62362;-81
2022/10/02 08:05:54;;;;;;;;;1.00;0.00;;;;;;;;5078107;28;63709;-81
2022/10/02 08:08:23;;;;;;;;;6.50;3.50;;;;;;;;5078260;28;61864;-82
2022/10/02 08:10:52;;;;;;;;;1.50;0.50;;;;;;;;5080427;28;62082;-81
2022/10/02 08:13:22;;;;;;;;;1.50;1.50;;;;;;;;5081004;28;61811;-81
2022/10/02 08:15:51;;;;;;;;;1.25;0.50;;;;;;;;5079365;27;62879;-82
2022/10/02 08:18:26;;;;;;;;;1.25;0.00;;;;;;;;5080919;28;62227;-82
2022/10/02 08:20:51;;;;;;;;;0.75;0.75;;;;;;;;5079007;28;61975;-81
2022/10/02 08:23:26;;;;;;;;;1.00;0.75;;;;;;;;5081589;27;61817;-80
2022/10/02 08:25:57;;;;;;;;;0.00;0.00;;;;;;;;5079620;28;62325;-81
2022/10/02 08:28:26;;;;;;;;;0.25;0.00;;;;;;;;5080738;28;62007;-81
2022/10/02 08:30:52;;;;;;;;;0.75;0.00;;;;;;;;5079927;28;61941;-81
2022/10/02 08:33:18;;;;;;;;;1.25;1.25;;;;;;;;5080686;28;61750;-81
2022/10/02 08:35:56;;;;;;;;;1.00;1.00;;;;;;;;5079988;28;61907;-79
2022/10/02 08:38:30;;;;;;;;;1.00;1.00;;;;;;;;5078615;28;61774;-81
2022/10/02 08:41:11;;;;;;;;;0.67;0.00;;;;;;;;5081020;28;61817;-80
2022/10/02 08:43:52;;;;;;;;;0.00;0.00;;;;;;;;5081256;27;62316;-81
2022/10/02 08:46:27;;;;;;;;;4.67;3.00;;;;;;;;5080917;28;63356;-79
2022/10/02 08:49:18;;;;;;;;;4.33;0.33;;;;;;;;5078658;27;61964;-81
2022/10/02 08:51:43;;;;;;;;;3.33;0.67;;;;;;;;5083465;27;61692;-81
2022/10/02 08:54:30;;;;;;;;;0.00;0.00;;;;;;;;5081158;27;61939;-79
2022/10/02 08:57:14;;;;;;;;;0.33;0.33;;;;;;;;5082762;28;61896;-79
2022/10/02 08:59:54;;;;;;;;;3.67;2.67;;;;;;;;5083165;28;61700;-80
2022/10/02 09:02:40;;;;;;;;;7.00;3.67;;;;;;;;5083593;27;62102;-81
2022/10/02 09:05:08;;;;;;;;;2.67;0.67;;;;;;;;5081807;28;62324;-81
2022/10/02 09:07:34;;;;;;;;;21.50;14.75;;;;;;;;5080699;28;63911;-81
2022/10/02 09:10:18;;;;;;;;;12.50;9.00;;;;;;;;5082165;28;61818;-82
2022/10/02 09:13:03;;;;;;;;;3.67;2.00;;;;;;;;5079259;28;62021;-85
2022/10/02 09:15:45;;;;;;;;;0.00;0.00;;;;;;;;5106739;27;61927;-83
2022/10/02 09:18:26;;;;;;;;;28.75;19.00;;;;;;;;5060447;28;63931;-82
2022/10/02 09:21:10;;;;;;;;;3.00;1.00;;;;;;;;5075587;28;61955;-84
2022/10/02 09:24:01;;;;;;;;;0.00;0.00;;;;;;;;5060930;28;61924;-85
2022/10/02 09:26:45;;;;;;;;;0.00;0.00;;;;;;;;5062844;28;61783;-83
2022/10/02 09:29:18;;;;;;;;;0.00;0.00;;;;;;;;5078283;28;64676;-84
2022/10/02 09:32:03;;;;;;;;;0.00;0.00;;;;;;;;5082674;27;61877;-90
2022/10/02 09:34:46;;;;;;;;;0.00;0.00;;;;;;;;5080829;28;61806;-83
2022/10/02 09:37:30;;;;;;;;;0.00;0.00;;;;;;;;5082304;28;61989;-85
2022/10/02 09:40:07;;;;;;;;;0.33;0.00;;;;;;;;5081535;27;61983;-83
2022/10/02 09:42:36;;;;;;;;;0.00;0.00;;;;;;;;5081062;28;61829;-83
2022/10/02 09:45:26;;;;;;;;;1.00;0.00;;;;;;;;5080961;28;62087;-84
2022/10/02 09:48:10;;;;;;;;;0.00;0.00;;;;;;;;5081738;27;61803;-80
2022/10/02 09:51:04;;;;;;;;;0.33;0.00;;;;;;;;5081473;27;61927;-81
2022/10/02 09:53:29;;;;;;;;;1.33;0.00;;;;;;;;5001573;28;62060;-76
2022/10/02 09:56:09;;;;;;;;;0.00;0.00;;;;;;;;5002080;28;61992;-80
2022/10/02 09:58:35;;;;;;;;;0.00;0.00;;;;;;;;5001630;28;61804;-75
2022/10/02 10:01:19;;;;;;;;;0.33;0.00;;;;;;;;5018684;28;62071;-75
2022/10/02 10:04:07;;;;;;;;;0.00;0.00;;;;;;;;5001559;28;61788;-76
2022/10/02 10:06:32;;;;;;;;;0.00;0.00;;;;;;;;5016838;28;62098;-78
2022/10/02 10:09:00;;;;;;;;;0.00;0.00;;;;;;;;5016059;28;62050;-78
2022/10/02 10:11:46;;;;;;;;;0.00;0.00;;;;;;;;5025966;28;63835;-77
2022/10/02 10:14:17;;;;;;;;;0.00;0.00;;;;;;;;4999575;28;61947;-78
2022/10/02 10:16:54;;;;;;;;;1.00;0.00;;;;;;;;5028290;28;61990;-75
2022/10/02 10:19:44;;;;;;;;;0.00;0.00;;;;;;;;5027111;28;62191;-76
2022/10/02 10:22:25;;;;;;;;;0.00;0.00;;;;;;;;5031004;28;63750;-76
2022/10/02 10:24:59;;;;;;;;;0.00;0.00;;;;;;;;5016223;28;62117;-76
2022/10/02 10:27:56;;;;;;;;;0.00;0.00;;;;;;;;5025463;28;61984;-76
2022/10/02 10:30:24;;;;;;;;;0.00;0.00;;;;;;;;5038217;28;61991;-77
2022/10/02 10:33:13;;;;;;;;;0.00;0.00;;;;;;;;5076808;28;64594;-75
2022/10/02 10:35:52;;;;;;;;;0.00;0.00;;;;;;;;5077178;28;61981;-78
2022/10/02 10:38:34;;;;;;;;;0.00;0.00;;;;;;;;5077040;28;61866;-78
2022/10/02 10:41:20;;;;;;;;;0.00;0.00;;;;;;;;5078861;28;61824;-77
2022/10/02 10:43:51;;;;;;;;;1.67;0.00;;;;;;;;5078778;28;61876;-78
2022/10/02 10:46:26;;;;;;;;;6.33;6.00;;;;;;;;5078871;28;62148;-77
2022/10/02 10:49:09;;;;;;;;;0.33;0.33;;;;;;;;5077793;28;61856;-77
2022/10/02 10:51:35;;;;;;;;;4.00;3.00;;;;;;;;5077220;28;61869;-77
2022/10/02 10:54:21;;;;;;;;;0.00;0.00;;;;;;;;5077283;28;63521;-76
2022/10/02 10:56:56;;;;;;;;;9.00;4.00;;;;;;;;5079732;28;61917;-79
2022/10/02 10:59:41;;;;;;;;;1.00;1.00;;;;;;;;5079726;28;61980;-79
2022/10/02 11:02:15;;;;;;;;;4.00;1.67;;;;;;;;5078351;28;62140;-79
2022/10/02 11:04:57;;;;;;;;;0.00;0.00;;;;;;;;5077508;28;65077;-81
2022/10/02 11:07:22;;;;;;;;;0.00;0.00;;;;;;;;5077919;28;62158;-82
2022/10/02 11:10:01;;;;;;;;;2.00;0.00;;;;;;;;5078135;28;61909;-83
2022/10/02 11:12:40;;;;;;;;;0.00;0.00;;;;;;;;5077139;28;61860;-78
2022/10/02 11:15:05;;;;;;;;;0.00;0.00;;;;;;;;5077139;27;63514;-80
2022/10/02 11:17:49;;;;;;;;;0.00;0.00;;;;;;;;5080124;27;62137;-78
2022/10/02 11:20:21;;;;;;;;;1.00;0.00;;;;;;;;5079674;27;62219;-77
2022/10/02 11:22:58;;;;;;;;;0.00;0.00;;;;;;;;5078893;27;61881;-76
2022/10/02 11:25:32;;;;;;;;;0.00;0.00;;;;;;;;5075259;28;62195;-75
2022/10/02 11:28:20;;;;;;;;;2.67;0.00;;;;;;;;5078043;28;62057;-75
2022/10/02 11:30:56;;;;;;;;;0.00;0.00;;;;;;;;5014494;28;61908;-77
2022/10/02 11:33:21;;;;;;;;;1.67;0.00;;;;;;;;5027879;28;62222;-78
2022/10/02 11:36:03;;;;;;;;;0.00;0.00;;;;;;;;5001303;28;63477;-75
2022/10/02 11:38:28;;;;;;;;;0.00;0.00;;;;;;;;5018502;28;62162;-76
2022/10/02 11:40:56;;;;;;;;;1.00;0.67;;;;;;;;5002114;28;61889;-75
2022/10/02 11:43:31;;;;;;;;;0.00;0.00;;;;;;;;5019172;28;61919;-81
2022/10/02 11:46:13;;;;;;;;;0.00;0.00;;;;;;;;5026476;28;63993;-82
2022/10/02 11:48:50;;;;;;;;;0.00;0.00;;;;;;;;4996699;28;61989;-80
2022/10/02 11:51:19;;;;;;;;;0.00;0.00;;;;;;;;5017059;28;63214;-80
2022/10/02 11:53:44;;;;;;;;;1.00;1.00;;;;;;;;5018595;28;61928;-83
2022/10/02 11:56:30;;;;;;;;;0.00;0.00;;;;;;;;5025828;28;62975;-82
2022/10/02 11:59:07;;;;;;;;;0.00;0.00;;;;;;;;5000442;28;62058;-83
2022/10/02 12:01:46;;;;;;;;;0.00;0.00;;;;;;;;5004031;28;61931;-83
2022/10/02 12:04:30;;;;;;;;;0.67;0.67;;;;;;;;5018612;28;61795;-87
2022/10/02 12:06:59;;;;;;;;;0.00;0.00;;;;;;;;5024084;28;62117;-82
2022/10/02 12:09:34;;;;;;;;;0.00;0.00;;;;;;;;5083252;27;62146;-87
2022/10/02 12:12:19;;;;;;;;;0.00;0.00;;;;;;;;5083831;28;61900;-83
2022/10/02 12:14:54;;;;;;;;;3.00;1.00;;;;;;;;5063539;27;61878;-85
2022/10/02 12:17:22;;;;;;;;;0.00;0.00;;;;;;;;5081958;28;64110;-88
2022/10/02 12:28:29;;;;;;;;;3.33;1.00;;;;;;;;5016931;28;62368;-81
2022/10/02 12:31:17;;;;;;;;;0.00;0.00;;;;;;;;5003818;28;62224;-78
2022/10/02 12:33:43;;;;;;;;;0.67;0.00;;;;;;;;4996423;28;61803;-82
2022/10/02 12:36:34;;;;;;;;;0.00;0.00;;;;;;;;5003641;28;61798;-77
2022/10/02 12:39:18;;;;;;;;;0.67;0.67;;;;;;;;4972827;28;64968;-81
2022/10/02 12:42:05;;;;;;;;;1.33;0.00;;;;;;;;5020526;28;61932;-82
2022/10/02 12:44:36;;;;;;;;;2.00;1.00;;;;;;;;5019847;28;62198;-82
2022/10/02 12:47:19;;;;;;;;;2.00;0.00;;;;;;;;5020273;28;62011;-80
2022/10/02 12:49:44;;;;;;;;;0.00;0.00;;;;;;;;5002761;28;64142;-82
2022/10/02 12:52:33;;;;;;;;;0.67;0.00;;;;;;;;5020106;28;62383;-81
2022/10/02 12:54:58;;;;;;;;;0.00;0.00;;;;;;;;5019638;28;61995;-80
2022/10/02 12:57:51;;;;;;;;;0.00;0.00;;;;;;;;5020462;28;62209;-81
2022/10/02 13:00:21;;;;;;;;;0.00;0.00;;;;;;;;5063269;28;64071;-79
2022/10/02 13:03:05;;;;;;;;;0.00;0.00;;;;;;;;5058102;28;61968;-80
2022/10/02 13:05:46;;;;;;;;;0.00;0.00;;;;;;;;5053081;28;61929;-78
2022/10/02 13:08:15;;;;;;;;;0.00;0.00;;;;;;;;5061754;28;62483;-79
2022/10/02 13:10:59;;;;;;;;;1.00;0.00;;;;;;;;5060787;28;63623;-79
2022/10/02 13:13:40;;;;;;;;;0.00;0.00;;;;;;;;5060947;28;61809;-77
2022/10/02 13:16:24;;;;;;;;;0.00;0.00;;;;;;;;5061210;28;61959;-78
2022/10/02 13:18:51;;;;;;;;;0.00;0.00;;;;;;;;5061583;28;62177;-76
2022/10/02 13:21:45;;;;;;;;;0.67;0.00;;;;;;;;5060523;28;63602;-77
2022/10/02 13:24:29;;;;;;;;;0.00;0.00;;;;;;;;5060853;28;61836;-79
2022/10/02 13:26:55;;;;;;;;;0.00;0.00;;;;;;;;5061064;28;61987;-77
2022/10/02 13:29:30;;;;;;;;;0.00;0.00;;;;;;;;5061242;28;62431;-76
2022/10/02 13:32:14;;;;;;;;;0.00;0.00;;;;;;;;5060615;28;63733;-78
2022/10/02 13:34:43;;;;;;;;;0.00;0.00;;;;;;;;5060279;28;61783;-79
2022/10/02 13:37:32;;;;;;;;;0.00;0.00;;;;;;;;5061366;28;62099;-79
2022/10/02 13:40:16;;;;;;;;;1.00;0.00;;;;;;;;5060968;28;62037;-79
2022/10/02 13:45:51;;;;;;;;;0.00;0.00;;;;;;;;5060077;28;62885;-83
2022/10/02 13:48:43;;;;;;;;;0.00;0.00;;;;;;;;5060386;28;62135;-79
2022/10/02 13:51:16;;;;;;;;;0.00;0.00;;;;;;;;5045597;28;62131;-80
2022/10/02 13:53:44;;;;;;;;;0.00;0.00;;;;;;;;5073777;28;63674;-78
2022/10/02 13:56:28;;;;;;;;;0.00;0.00;;;;;;;;5057140;28;61869;-79
2022/10/02 13:59:05;;;;;;;;;0.00;0.00;;;;;;;;5095370;27;62167;-79
2022/10/02 14:01:51;;;;;;;;;0.00;0.00;;;;;;;;5095264;27;61733;-79
2022/10/02 14:04:26;;;;;;;;;0.00;0.00;;;;;;;;5059971;28;63922;-80
2022/10/02 14:07:04;;;;;;;;;0.00;0.00;;;;;;;;5061110;28;62271;-78
2022/10/02 14:09:44;;;;;;;;;0.00;0.00;;;;;;;;5094407;27;62329;-76
2022/10/02 14:12:09;;;;;;;;;0.00;0.00;;;;;;;;5081302;28;61749;-77
2022/10/02 14:14:41;;;;;;;;;0.00;0.00;;;;;;;;5081412;28;63221;-76
2022/10/02 14:17:15;;;;;;;;;1.00;0.00;;;;;;;;5082314;27;61791;-76
2022/10/02 14:20:10;;;;;;;;;0.00;0.00;;;;;;;;5080818;28;62004;-77
2022/10/02 14:22:35;;;;;;;;;0.00;0.00;;;;;;;;5067350;27;62268;-81
2022/10/02 14:25:03;;;;;;;;;0.00;0.00;;;;;;;;5080974;28;63396;-75
2022/10/02 14:27:53;;;;;;;;;0.00;0.00;;;;;;;;5082107;27;61758;-75
2022/10/02 14:30:22;;;;;;;;;0.00;0.00;;;;;;;;5080583;28;61812;-78
2022/10/02 14:33:10;;;;;;;;;0.00;0.00;;;;;;;;5079962;28;61876;-79
2022/10/02 14:35:50;;;;;;;;;0.00;0.00;;;;;;;;5072985;28;63734;-77
2022/10/02 14:38:18;;;;;;;;;0.33;0.33;;;;;;;;5081538;27;61781;-76
2022/10/02 14:40:44;;;;;;;;;0.00;0.00;;;;;;;;5079359;27;61736;-74
2022/10/02 14:43:18;;;;;;;;;0.00;0.00;;;;;;;;5081761;28;61761;-74
2022/10/02 14:45:59;;;;;;;;;0.00;0.00;;;;;;;;5077954;28;63099;-74
2022/10/02 14:48:49;;;;;;;;;0.00;0.00;;;;;;;;5078427;28;61987;-74
2022/10/02 14:51:33;;;;;;;;;0.00;0.00;;;;;;;;5078707;28;61989;-74
2022/10/02 14:53:59;;;;;;;;;0.00;0.00;;;;;;;;5079843;27;61768;-74
2022/10/02 14:56:27;;;;;;;;;0.00;0.00;;;;;;;;5079397;28;61823;-73
2022/10/02 14:59:11;;;;;;;;;0.00;0.00;;;;;;;;5076685;28;61854;-74
2022/10/02 15:01:41;;;;;;;;;0.00;0.00;;;;;;;;5099683;27;61871;-75
2022/10/02 15:04:22;;;;;;;;;0.00;0.00;;;;;;;;5079759;28;61820;-75
2022/10/02 15:06:58;;;;;;;;;0.00;0.00;;;;;;;;5081839;27;62078;-75
2022/10/02 15:09:36;;;;;;;;;0.00;0.00;;;;;;;;5080751;28;61958;-74
2022/10/02 15:12:07;;;;;;;;;4.00;2.00;;;;;;;;5084670;27;61876;-74
2022/10/02 15:14:36;;;;;;;;;2.00;1.67;;;;;;;;5085234;27;61946;-74
2022/10/02 15:20:12;;;;;;;;;1.00;1.00;;;;;;;;5072232;28;61936;-75
2022/10/02 15:22:44;;;;;;;;;0.00;0.00;;;;;;;;5074652;28;62023;-75
2022/10/02 15:25:23;;;;;;;;;3.00;1.33;;;;;;;;5081435;28;61782;-74
2022/10/02 15:27:57;;;;;;;;;2.00;0.00;;;;;;;;5080416;28;61969;-75
2022/10/02 15:30:23;;;;;;;;;4.00;2.75;;;;;;;;5079114;28;61860;-74
2022/10/02 15:32:58;;;;;;;;;4.00;3.00;;;;;;;;5083034;28;61926;-76
2022/10/02 15:35:28;;;;;;;;;3.00;3.00;;;;;;;;5079368;28;61917;-76
2022/10/02 15:37:59;;;;;;;;;13.00;10.75;;;;;;;;5082249;28;62763;-75
2022/10/02 15:40:31;;;;;;;;;1.50;1.50;;;;;;;;5076093;28;62200;-75
2022/10/02 15:43:02;;;;;;;;;6.00;3.00;;;;;;;;5080255;28;61904;-75